Time;durP1;ratioP1;P1;durP2;ratioP2;P2;SDS_P1;SDS_P2;PMS_P1;PMS_P2;Temp;Humidity;BMP_temperature;BMP_pressure;BME280_temperature;BME280_humidity;BME280_pressure;Samples;Min_cycle;Max_cycle;Signal;HPM_P1;HPM_P2
2022/08/31 00:08:33;;;;;;;2.20;2.00;;;;;;;20.37;63.56;97182.56;10503628;28;20060;-50
2022/08/31 00:13:58;;;;;;;2.17;1.98;;;;;;;20.36;63.67;97179.03;10497768;28;20055;-51
2022/08/31 00:19:17;;;;;;;2.72;1.90;;;;;;;20.35;63.55;97180.94;10502788;28;20056;-51
2022/08/31 00:24:37;;;;;;;3.15;1.90;;;;;;;20.37;63.55;97185.25;10502665;28;20052;-50
2022/08/31 00:29:56;;;;;;;1.70;1.60;;;;;;;20.36;63.61;97173.63;10505099;28;20064;-50
2022/08/31 00:35:16;;;;;;;1.90;1.80;;;;;;;20.35;63.52;97180.94;10501852;28;20056;-48
2022/08/31 00:40:36;;;;;;;2.13;1.92;;;;;;;20.36;63.51;97181.72;10504627;28;20048;-50
2022/08/31 00:45:56;;;;;;;1.77;1.67;;;;;;;20.37;63.61;97185.25;10490814;28;20052;-51
2022/08/31 00:51:15;;;;;;;2.03;1.90;;;;;;;20.35;63.51;97180.94;10501312;28;20495;-50
2022/08/31 00:56:35;;;;;;;1.83;1.73;;;;;;;20.35;63.66;97180.16;10505343;28;20048;-50
2022/08/31 01:01:55;;;;;;;1.80;1.70;;;;;;;20.35;63.56;97180.16;10473316;28;20064;-50
2022/08/31 01:07:14;;;;;;;1.98;1.88;;;;;;;20.35;63.50;97175.53;10499979;28;20045;-51
2022/08/31 01:12:34;;;;;;;1.90;1.80;;;;;;;20.35;63.62;97169.34;10518062;28;20492;-50
2022/08/31 01:17:55;;;;;;;1.88;1.77;;;;;;;20.35;63.46;97169.34;10498938;28;20051;-51
2022/08/31 01:23:20;;;;;;;2.00;1.77;;;;;;;20.35;63.52;97169.34;10490478;28;20053;-50
2022/08/31 01:28:40;;;;;;;1.98;1.80;;;;;;;20.34;63.49;97168.53;10486980;28;20078;-50
2022/08/31 01:33:59;;;;;;;2.25;1.95;;;;;;;20.33;63.52;97166.94;10499925;28;20059;-48
2022/08/31 01:39:18;;;;;;;2.00;1.90;;;;;;;20.34;63.52;97170.44;10491177;28;20568;-51
2022/08/31 01:44:37;;;;;;;2.25;2.00;;;;;;;20.35;63.31;97174.75;10497151;28;20056;-50
2022/08/31 01:49:58;;;;;;;2.10;1.90;;;;;;;20.35;63.42;97172.03;10483526;28;20492;-51
2022/08/31 01:55:18;;;;;;;2.20;1.63;;;;;;;20.34;63.42;97181.25;10506200;28;20117;-50
2022/08/31 02:00:38;;;;;;;2.13;1.98;;;;;;;20.34;63.50;97186.66;10499165;28;20106;-49
2022/08/31 02:05:58;;;;;;;2.17;2.08;;;;;;;20.34;63.40;97179.34;10484292;28;20511;-49
2022/08/31 02:11:17;;;;;;;2.00;1.90;;;;;;;20.33;63.39;97182.38;10505054;28;20045;-50
2022/08/31 02:16:38;;;;;;;1.85;1.75;;;;;;;20.33;63.42;97175.06;10482822;28;20074;-50
2022/08/31 02:21:59;;;;;;;1.70;1.60;;;;;;;20.33;63.49;97179.69;10483276;28;20117;-50
2022/08/31 02:27:19;;;;;;;2.10;1.90;;;;;;;20.32;63.34;97178.88;10494103;28;20044;-49
2022/08/31 02:32:39;;;;;;;1.90;1.80;;;;;;;20.32;63.36;97169.97;10497172;28;20068;-50
2022/08/31 02:37:59;;;;;;;2.20;2.00;;;;;;;20.32;63.34;97165.34;10497561;28;20057;-50
2022/08/31 02:43:19;;;;;;;2.25;1.90;;;;;;;20.32;63.33;97162.63;10485522;28;20060;-50
2022/08/31 02:48:38;;;;;;;2.03;1.92;;;;;;;20.32;63.32;97154.50;10481410;28;20048;-49
2022/08/31 02:53:58;;;;;;;2.28;2.08;;;;;;;20.33;63.27;97161.53;10515544;28;20059;-48
2022/08/31 02:59:19;;;;;;;1.85;1.75;;;;;;;20.32;63.32;97149.09;10510351;28;20044;-50
2022/08/31 03:04:40;;;;;;;2.08;1.95;;;;;;;20.32;63.35;97153.72;10495434;28;20049;-51
2022/08/31 03:10:01;;;;;;;1.77;1.67;;;;;;;20.32;63.34;97156.44;10500905;28;20098;-50
2022/08/31 03:15:22;;;;;;;2.08;1.98;;;;;;;20.31;63.20;97144.81;10486057;28;20048;-50
2022/08/31 03:20:41;;;;;;;2.20;2.00;;;;;;;20.31;63.32;97133.22;10509647;28;20036;-51
2022/08/31 03:26:04;;;;;;;1.98;1.88;;;;;;;20.32;63.42;97137.50;10500319;28;20052;-50
2022/08/31 03:31:23;;;;;;;2.08;1.90;;;;;;;20.31;63.42;97142.13;10480671;28;20118;-51
2022/08/31 03:36:43;;;;;;;2.33;1.80;;;;;;;20.30;63.27;97135.09;10481356;28;20044;-50
2022/08/31 03:42:05;;;;;;;2.00;1.80;;;;;;;20.31;63.34;97136.72;10499241;28;20059;-51
2022/08/31 03:47:26;;;;;;;1.92;1.83;;;;;;;20.30;63.37;97139.72;10480993;28;20061;-50
2022/08/31 03:52:46;;;;;;;1.70;1.60;;;;;;;20.31;63.42;97149.44;10497463;28;20032;-48
2022/08/31 03:58:11;;;;;;;2.08;1.90;;;;;;;20.31;63.39;97157.56;10481492;28;20049;-49
2022/08/31 04:03:30;;;;;;;2.15;1.95;;;;;;;20.30;63.35;97150.56;10488015;28;20057;-49
2022/08/31 04:09:10;;;;;;;2.13;2.00;;;;;;;20.30;63.34;97164.88;10499528;28;20100;-50
2022/08/31 04:14:48;;;;;;;1.98;1.88;;;;;;;20.31;63.17;97169.19;10502998;28;20369;-53
2022/08/31 04:20:40;;;;;;;2.00;1.90;;;;;;;20.30;63.24;97167.56;10488029;28;20060;-51
2022/08/31 04:25:59;;;;;;;2.17;1.70;;;;;;;20.29;63.29;97162.50;10499907;28;20044;-49
2022/08/31 04:31:20;;;;;;;1.98;1.77;;;;;;;20.29;63.17;97162.50;10502196;28;20064;-49
2022/08/31 04:36:40;;;;;;;2.05;1.85;;;;;;;20.30;63.27;97167.56;10491545;28;20070;-50
2022/08/31 04:41:59;;;;;;;2.10;1.90;;;;;;;20.30;63.18;97169.50;10501226;28;20496;-51
2022/08/31 04:47:20;;;;;;;2.05;1.83;;;;;;;20.29;63.30;97173.31;10486698;28;20366;-50
2022/08/31 04:52:41;;;;;;;1.98;1.88;;;;;;;20.29;63.33;97168.69;10496514;28;20048;-50
2022/08/31 04:58:00;;;;;;;2.10;2.00;;;;;;;20.28;63.28;97169.81;10499620;28;20070;-50
2022/08/31 05:03:19;;;;;;;2.00;1.90;;;;;;;20.28;63.15;97183.34;10501358;28;20056;-52
2022/08/31 05:08:40;;;;;;;2.00;1.80;;;;;;;20.28;63.19;97180.63;10503422;28;20033;-50
2022/08/31 05:14:04;;;;;;;2.47;1.80;;;;;;;20.29;63.19;97189.56;10485297;28;20052;-50
2022/08/31 05:19:23;;;;;;;2.33;2.13;;;;;;;20.27;63.07;97189.88;10484793;28;20056;-50
2022/08/31 05:24:42;;;;;;;1.88;1.70;;;;;;;20.29;63.24;97200.38;10486576;28;20044;-51
2022/08/31 05:30:03;;;;;;;2.00;1.90;;;;;;;20.29;63.13;97203.88;10499972;28;20062;-50
2022/08/31 05:35:35;;;;;;;2.40;1.73;;;;;;;20.28;63.16;97207.69;10488136;28;20056;-49
2022/08/31 05:40:55;;;;;;;2.15;1.95;;;;;;;20.28;63.11;97202.28;10485500;28;20099;-51
2022/08/31 05:46:15;;;;;;;1.88;1.77;;;;;;;20.29;63.22;97206.59;10512227;28;20488;-50
2022/08/31 05:51:35;;;;;;;1.85;1.75;;;;;;;20.30;63.16;97204.66;10487322;28;20070;-50
2022/08/31 05:56:55;;;;;;;1.88;1.77;;;;;;;20.28;63.24;97201.47;10498468;28;20052;-50
2022/08/31 06:02:15;;;;;;;1.98;1.88;;;;;;;20.28;63.17;97207.69;10483712;28;20052;-49
2022/08/31 06:07:34;;;;;;;1.90;1.80;;;;;;;20.30;63.18;97205.44;10488128;28;20465;-51
2022/08/31 06:12:56;;;;;;;2.05;1.77;;;;;;;20.29;63.16;97220.09;10483637;28;20052;-48
2022/08/31 06:18:16;;;;;;;2.00;1.80;;;;;;;20.29;63.22;97220.09;10483194;28;20048;-50
2022/08/31 06:23:37;;;;;;;1.80;1.70;;;;;;;20.30;63.22;97223.59;10483147;28;20083;-49
2022/08/31 06:28:59;;;;;;;2.15;1.98;;;;;;;20.29;63.16;97224.72;10482955;28;20052;-50
2022/08/31 06:34:20;;;;;;;2.10;1.90;;;;;;;20.30;63.29;97229.81;10486774;28;20055;-51
2022/08/31 06:39:59;;;;;;;2.17;1.98;;;;;;;20.30;63.27;97221.69;10502826;28;20369;-50
2022/08/31 06:45:25;;;;;;;1.90;1.67;;;;;;;20.29;63.22;97225.53;10497172;28;20057;-51
2022/08/31 06:50:56;;;;;;;2.90;1.83;;;;;;;20.30;63.14;97227.09;10479062;28;20060;-50
2022/08/31 06:56:19;;;;;;;1.90;1.80;;;;;;;20.29;63.29;97214.69;10481904;28;20048;-49
2022/08/31 07:02:11;;;;;;;2.05;1.80;;;;;;;20.29;63.30;97220.09;10447215;28;20052;-50
2022/08/31 07:07:31;;;;;;;2.15;1.90;;;;;;;20.29;63.13;97225.53;10497217;28;20040;-48
2022/08/31 07:12:50;;;;;;;1.80;1.70;;;;;;;20.30;63.30;97223.59;10510071;28;20044;-51
2022/08/31 07:18:10;;;;;;;1.90;1.70;;;;;;;20.30;63.28;97235.22;10496747;28;20053;-49
2022/08/31 07:23:29;;;;;;;2.20;2.00;;;;;;;20.29;63.29;97236.34;10481775;28;20098;-50
2022/08/31 07:28:57;;;;;;;2.10;1.90;;;;;;;20.30;63.35;97242.53;10494618;28;20544;-52
2022/08/31 07:34:25;;;;;;;1.83;1.73;;;;;;;20.29;63.27;97239.03;10500325;28;20044;-51
2022/08/31 07:45:39;;;;;;;1.60;1.50;;;;;;;20.31;63.33;97244.94;10493614;28;20044;-50
2022/08/31 07:50:59;;;;;;;1.98;1.75;;;;;;;20.30;63.27;97243.31;10502368;28;20040;-50
2022/08/31 07:56:36;;;;;;;1.88;1.67;;;;;;;20.31;63.30;97241.44;10517219;28;20040;-50
2022/08/31 08:02:03;;;;;;;;;;;;;;;20.30;63.18;97256.84;10508639;28;20079;-51
2022/08/31 08:07:23;;;;;;;1.80;1.70;;;;;;;20.30;63.35;97254.16;10503449;28;19927;-51
2022/08/31 08:13:11;;;;;;;1.92;1.73;;;;;;;20.31;63.38;97252.25;10501358;28;20496;-50
2022/08/31 08:18:40;;;;;;;2.00;1.80;;;;;;;20.31;63.35;97254.97;10506699;28;20040;-50
2022/08/31 08:24:01;;;;;;;1.90;1.80;;;;;;;20.30;63.56;97266.88;10487853;28;20049;-50
2022/08/31 08:29:39;;;;;;;;;;;;;;;20.31;63.43;97271.19;10495699;28;20083;-49
2022/08/31 08:35:02;;;;;;;1.75;1.65;;;;;;;20.31;63.38;97260.38;10487408;28;20358;-50
2022/08/31 08:40:40;;;;;;;1.65;1.55;;;;;;;20.30;63.49;97264.97;10487194;28;20055;-49
2022/08/31 08:46:01;;;;;;;1.75;1.63;;;;;;;20.31;63.52;97263.09;10510360;28;20055;-50
2022/08/31 08:51:25;;;;;;;1.80;1.70;;;;;;;20.31;63.41;97271.19;10486023;28;20419;-51
2022/08/31 08:56:50;;;;;;;1.85;1.75;;;;;;;20.31;63.55;97265.78;10473295;28;20051;-50
2022/08/31 09:02:22;;;;;;;1.70;1.60;;;;;;;20.32;63.63;97268.16;10504971;28;20883;-50
2022/08/31 09:07:51;;;;;;;2.58;1.75;;;;;;;20.32;63.51;97270.06;10486553;28;20466;-50
2022/08/31 09:13:15;;;;;;;1.90;1.80;;;;;;;20.34;63.57;97273.25;10518319;28;20059;-51
2022/08/31 09:18:40;;;;;;;1.73;1.63;;;;;;;20.34;63.61;97281.38;10490315;28;20098;-51
2022/08/31 09:24:04;;;;;;;1.70;1.60;;;;;;;20.33;63.49;97269.75;10485124;28;20048;-50
2022/08/31 09:29:43;;;;;;;1.88;1.70;;;;;;;20.35;63.45;97274.88;10477558;28;20056;-51
2022/08/31 09:35:07;;;;;;;1.70;1.60;;;;;;;20.34;63.58;97275.97;10499928;28;20094;-49
2022/08/31 09:40:43;;;;;;;1.60;1.50;;;;;;;20.35;63.61;97277.56;10500011;28;20053;-49
2022/08/31 09:46:03;;;;;;;3.10;1.85;;;;;;;20.35;63.73;97275.66;10503929;28;20384;-50
2022/08/31 09:51:34;;;;;;;1.80;1.70;;;;;;;20.35;63.69;97269.44;10499342;28;20052;-50
2022/08/31 09:56:56;;;;;;;1.50;1.40;;;;;;;20.35;63.68;97267.53;10515866;28;20032;-51
2022/08/31 10:02:32;;;;;;;1.98;1.83;;;;;;;20.35;63.67;97261.34;10488039;28;20102;-50
2022/08/31 10:08:03;;;;;;;1.70;1.60;;;;;;;20.35;63.70;97262.13;10498958;28;20079;-51
2022/08/31 10:13:33;;;;;;;1.77;1.67;;;;;;;20.37;63.76;97258.31;10490007;28;20052;-50
2022/08/31 10:19:12;;;;;;;1.70;1.60;;;;;;;20.38;63.83;97259.88;10498132;28;20060;-48
2022/08/31 10:24:44;;;;;;;2.10;1.80;;;;;;;20.37;63.80;97252.91;10498206;28;20048;-50
2022/08/31 10:30:27;;;;;;;1.95;1.58;;;;;;;20.37;63.81;97242.09;10486971;28;20059;-50
2022/08/31 10:35:53;;;;;;;1.80;1.70;;;;;;;20.38;63.84;97249.06;10496774;28;20434;-51
2022/08/31 10:41:38;;;;;;;1.50;1.40;;;;;;;20.37;63.79;97244.78;10486551;28;20131;-50
2022/08/31 10:47:01;;;;;;;1.70;1.60;;;;;;;20.37;63.91;97250.19;10482531;28;20109;-50
2022/08/31 10:52:28;;;;;;;1.75;1.60;;;;;;;20.38;64.05;97257.19;10484439;28;20519;-51
2022/08/31 10:58:03;;;;;;;1.80;1.70;;;;;;;20.38;63.90;97263.38;10500339;28;20048;-51
2022/08/31 11:03:40;;;;;;;1.63;1.52;;;;;;;20.37;63.82;97263.72;10497052;28;20056;-50
2022/08/31 11:09:06;;;;;;;1.70;1.60;;;;;;;20.38;63.98;97254.47;10487613;28;20044;-50
2022/08/31 11:14:29;;;;;;;1.40;1.30;;;;;;;20.38;63.92;97257.19;10485015;28;20063;-50
2022/08/31 11:19:58;;;;;;;1.60;1.50;;;;;;;20.37;64.05;97259.09;10496434;28;20052;-50
2022/08/31 11:25:46;;;;;;;1.48;1.38;;;;;;;20.38;64.04;97259.88;10500307;28;20067;-51
2022/08/31 11:31:13;;;;;;;1.65;1.50;;;;;;;20.38;64.04;97262.59;10495655;28;20507;-51
2022/08/31 11:36:48;;;;;;;1.60;1.50;;;;;;;20.39;64.03;97259.59;10509606;28;20422;-50
2022/08/31 11:42:11;;;;;;;1.60;1.45;;;;;;;20.38;63.97;97259.88;10500199;28;20057;-51
2022/08/31 11:47:33;;;;;;;1.65;1.52;;;;;;;20.38;63.96;97257.19;10496470;28;20070;-50
2022/08/31 11:52:54;;;;;;;1.50;1.40;;;;;;;20.37;64.05;97264.50;10496045;28;20056;-50
2022/08/31 11:58:18;;;;;;;1.65;1.55;;;;;;;20.38;64.00;97266.09;10504897;28;20048;-51
2022/08/31 12:04:02;;;;;;;1.52;1.42;;;;;;;20.38;63.98;97268.00;10495641;28;20052;-49
2022/08/31 12:09:44;;;;;;;1.60;1.50;;;;;;;20.37;64.01;97258.31;10499306;28;20519;-51
2022/08/31 12:15:11;;;;;;;1.40;1.30;;;;;;;20.39;63.96;97256.88;10479712;28;20055;-50
2022/08/31 12:26:57;;;;;;;2.00;1.40;;;;;;;20.39;63.97;97261.50;10499591;28;20071;-51
2022/08/31 12:32:38;;;;;;;1.45;1.35;;;;;;;20.38;63.92;97254.47;10502443;28;20060;-49
2022/08/31 12:38:02;;;;;;;1.48;1.38;;;;;;;20.39;63.85;97254.16;10506395;28;20045;-51
2022/08/31 12:43:40;;;;;;;1.50;1.40;;;;;;;20.38;63.93;97254.47;10502314;28;20049;-51
2022/08/31 12:49:48;;;;;;;1.65;1.55;;;;;;;20.39;63.98;97253.38;10501625;28;20056;-51
2022/08/31 12:55:11;;;;;;;1.40;1.30;;;;;;;20.38;63.81;97263.38;10506177;28;20411;-51
2022/08/31 13:00:33;;;;;;;1.70;1.60;;;;;;;20.39;63.95;97265.00;10501759;28;20056;-49
2022/08/31 13:06:23;;;;;;;1.63;1.52;;;;;;;20.40;63.95;97254.97;10499666;28;20048;-51
2022/08/31 13:11:50;;;;;;;1.65;1.55;;;;;;;20.39;63.93;97256.88;10484235;28;20052;-51
2022/08/31 13:17:14;;;;;;;1.42;1.33;;;;;;;20.39;63.97;97254.16;10500305;28;20071;-50
2022/08/31 13:22:41;;;;;;;1.50;1.40;;;;;;;20.39;63.97;97254.16;10504796;28;20450;-51
2022/08/31 13:28:24;;;;;;;1.60;1.50;;;;;;;20.39;63.93;97256.88;10500008;28;20055;-49
2022/08/31 13:33:46;;;;;;;1.35;1.25;;;;;;;20.40;63.94;97260.38;10498629;28;20076;-50
2022/08/31 13:39:15;;;;;;;1.42;1.33;;;;;;;20.40;64.00;97258.44;10503647;28;20107;-51
2022/08/31 13:44:38;;;;;;;1.15;1.10;;;;;;;20.40;63.88;97246.84;10493670;28;20388;-50
2022/08/31 13:50:11;;;;;;;1.40;1.30;;;;;;;20.39;63.81;97247.97;10484306;28;20068;-50
2022/08/31 13:55:33;;;;;;;1.38;1.20;;;;;;;20.40;63.94;97252.25;10499394;28;20051;-49
2022/08/31 14:00:56;;;;;;;1.65;1.35;;;;;;;20.40;63.89;97246.84;10498986;28;20114;-52
2022/08/31 14:06:24;;;;;;;1.50;1.40;;;;;;;20.40;63.91;97244.13;10502636;28;20472;-50
2022/08/31 14:11:53;;;;;;;1.50;1.40;;;;;;;20.40;63.89;97242.22;10484329;28;20041;-49
2022/08/31 14:17:14;;;;;;;1.85;1.40;;;;;;;20.40;63.82;97236.00;10497898;28;20047;-50
2022/08/31 14:22:35;;;;;;;1.38;1.27;;;;;;;20.40;63.98;97236.00;10502226;28;20063;-50
2022/08/31 14:27:55;;;;;;;1.60;1.33;;;;;;;20.38;63.95;97230.91;10497912;28;20053;-51
2022/08/31 14:33:17;;;;;;;1.40;1.30;;;;;;;20.40;63.87;97225.97;10497099;28;20056;-50
2022/08/31 14:38:36;;;;;;;1.25;1.15;;;;;;;20.40;63.88;97225.19;10501639;28;20102;-51
2022/08/31 14:44:05;;;;;;;1.30;1.20;;;;;;;20.41;63.96;97226.78;10497647;28;20049;-52
2022/08/31 14:49:25;;;;;;;;;;;;;;;20.41;63.82;97221.38;10501626;28;20048;-51
2022/08/31 14:54:44;;;;;;;1.23;1.13;;;;;;;20.41;63.88;97226.78;10497888;28;19920;-50
2022/08/31 15:00:06;;;;;;;1.30;1.20;;;;;;;20.40;63.75;97217.06;10510760;28;20045;-51
2022/08/31 15:05:25;;;;;;;1.40;1.30;;;;;;;20.40;63.90;97215.16;10489730;28;20057;-51
2022/08/31 15:10:45;;;;;;;1.40;1.30;;;;;;;20.40;63.83;97219.78;10496602;28;20052;-49
2022/08/31 15:16:05;;;;;;;1.30;1.20;;;;;;;20.40;63.87;97223.28;10495957;28;20127;-50
2022/08/31 15:21:25;;;;;;;1.42;1.33;;;;;;;20.40;63.64;97217.88;10500246;28;20454;-51
2022/08/31 15:26:45;;;;;;;1.17;1.08;;;;;;;20.41;63.94;97221.38;10496874;28;20051;-51
2022/08/31 15:32:06;;;;;;;1.30;1.20;;;;;;;20.41;63.72;97234.91;10496074;28;20396;-50
2022/08/31 15:37:28;;;;;;;1.27;1.17;;;;;;;20.40;63.77;97223.28;10495655;28;20076;-51
2022/08/31 15:42:49;;;;;;;1.98;1.30;;;;;;;20.40;63.76;97227.91;10486542;28;20071;-50
2022/08/31 15:53:51;;;;;;;1.35;1.25;;;;;;;20.40;63.67;97219.78;10495864;28;20064;-50
2022/08/31 15:59:11;;;;;;;1.15;1.13;;;;;;;20.40;63.75;97220.56;10517410;28;20064;-51
2022/08/31 16:04:32;;;;;;;1.15;1.05;;;;;;;20.41;63.79;97221.38;10508309;28;20412;-51
2022/08/31 16:09:51;;;;;;;1.20;1.10;;;;;;;20.41;63.63;97224.09;10500660;28;20052;-50
2022/08/31 16:15:13;;;;;;;1.23;1.13;;;;;;;20.41;63.71;97215.97;10503381;28;20106;-49
2022/08/31 16:20:33;;;;;;;2.03;1.30;;;;;;;20.40;63.76;97220.56;10517061;28;20047;-50
2022/08/31 16:25:53;;;;;;;1.17;1.10;;;;;;;20.40;63.73;97225.19;10502789;28;20053;-51
2022/08/31 16:31:13;;;;;;;1.40;1.30;;;;;;;20.40;63.75;97219.78;10506590;28;20146;-49
2022/08/31 16:36:33;;;;;;;1.10;1.00;;;;;;;20.39;63.77;97218.22;10502569;28;20048;-51
2022/08/31 16:41:52;;;;;;;1.10;1.10;;;;;;;20.39;63.70;97224.41;10492783;28;20063;-50
2022/08/31 16:47:13;;;;;;;1.00;1.00;;;;;;;20.39;63.67;97229.03;10506097;28;20060;-50
2022/08/31 16:52:34;;;;;;;1.40;1.30;;;;;;;20.40;63.78;97225.97;10490710;28;20098;-51
2022/08/31 16:57:53;;;;;;;1.42;1.33;;;;;;;20.39;63.77;97218.22;10501633;28;20048;-51
2022/08/31 17:03:13;;;;;;;1.23;1.13;;;;;;;20.39;63.60;97229.03;10505330;28;20067;-51
2022/08/31 17:08:44;;;;;;;1.27;1.17;;;;;;;20.38;63.73;97230.91;10474419;28;20063;-49
2022/08/31 17:14:06;;;;;;;1.40;1.30;;;;;;;20.39;63.60;97226.31;10500593;28;20488;-51
2022/08/31 17:19:25;;;;;;;1.23;1.13;;;;;;;20.39;63.60;97234.44;10510697;28;20041;-50
2022/08/31 17:24:45;;;;;;;1.30;1.20;;;;;;;20.38;63.44;97243.66;10500880;28;20056;-51
2022/08/31 17:30:06;;;;;;;1.40;1.25;;;;;;;20.38;63.40;97243.66;10503631;28;20576;-49
2022/08/31 17:35:26;;;;;;;1.48;1.20;;;;;;;20.39;63.65;97250.69;10513440;28;20094;-50
2022/08/31 17:40:46;;;;;;;1.50;1.40;;;;;;;20.38;63.50;97243.66;10500159;28;20048;-52
2022/08/31 17:46:08;;;;;;;1.23;1.20;;;;;;;20.40;63.40;97252.25;10492852;28;20051;-51
2022/08/31 17:51:30;;;;;;;1.30;1.20;;;;;;;20.38;63.37;97255.28;10499583;28;20060;-52
2022/08/31 17:56:54;;;;;;;1.60;1.50;;;;;;;20.38;63.33;97266.09;10512649;28;20048;-49
2022/08/31 18:02:35;;;;;;;1.50;1.20;;;;;;;20.39;63.22;97269.63;10502643;28;20050;-49
2022/08/31 18:07:54;;;;;;;1.10;1.10;;;;;;;20.38;63.21;97274.22;10498172;28;20055;-49
2022/08/31 18:13:13;;;;;;;1.50;1.40;;;;;;;20.39;63.09;97277.75;10501396;28;20055;-50
2022/08/31 18:18:34;;;;;;;1.35;1.25;;;;;;;20.38;63.05;97281.53;10497892;28;20114;-51
2022/08/31 18:23:53;;;;;;;1.40;1.30;;;;;;;20.38;63.12;97281.53;10497950;28;20059;-51
2022/08/31 18:29:15;;;;;;;1.42;1.33;;;;;;;20.37;63.13;97290.78;10501374;28;20056;-50
2022/08/31 18:34:38;;;;;;;2.50;1.20;;;;;;;20.37;63.04;97294.28;10486591;28;20045;-52
2022/08/31 18:45:36;;;;;;;1.30;1.20;;;;;;;20.37;63.11;97296.19;10500638;28;20122;-50
2022/08/31 18:50:57;;;;;;;1.33;1.23;;;;;;;20.37;62.99;97296.19;10500313;28;20109;-50
2022/08/31 18:56:18;;;;;;;1.08;1.00;;;;;;;20.35;63.10;97297.28;10497284;28;20044;-50
2022/08/31 19:01:38;;;;;;;1.35;0.98;;;;;;;20.35;63.06;97305.41;10507521;28;20051;-49
2022/08/31 19:06:58;;;;;;;1.30;1.20;;;;;;;20.35;63.02;97302.72;10497227;28;20103;-51
2022/08/31 19:12:18;;;;;;;1.90;1.17;;;;;;;20.35;63.04;97304.63;10500463;28;20053;-48
2022/08/31 19:17:38;;;;;;;1.20;1.10;;;;;;;20.35;63.01;97313.53;10507709;28;20047;-51
2022/08/31 19:22:58;;;;;;;1.15;1.10;;;;;;;20.35;62.87;97308.13;10496686;28;20052;-51
2022/08/31 19:28:17;;;;;;;0.98;0.98;;;;;;;20.36;62.96;97317.03;10489938;28;20049;-50
2022/08/31 19:33:36;;;;;;;1.20;1.10;;;;;;;20.36;62.93;97317.03;10505700;28;20411;-50
2022/08/31 19:38:56;;;;;;;1.02;1.02;;;;;;;20.35;62.93;97301.91;10505153;28;20079;-51
2022/08/31 19:44:16;;;;;;;1.00;1.00;;;;;;;20.35;62.79;97305.41;10498399;28;20041;-51
2022/08/31 19:49:35;;;;;;;0.90;0.90;;;;;;;20.36;62.77;97306.19;10503518;28;20492;-50
2022/08/31 19:54:55;;;;;;;1.60;1.10;;;;;;;20.35;62.71;97310.03;10498722;28;20453;-51
2022/08/31 20:00:15;;;;;;;1.35;1.20;;;;;;;20.34;62.70;97309.22;10518068;28;20086;-51
2022/08/31 20:05:42;;;;;;;1.25;1.15;;;;;;;20.34;62.81;97311.94;10503536;28;20048;-48
2022/08/31 20:11:01;;;;;;;0.95;0.93;;;;;;;20.33;62.64;97310.34;10507220;28;20316;-49
2022/08/31 20:16:21;;;;;;;1.30;1.20;;;;;;;20.33;62.56;97302.22;10502508;28;20059;-51
2022/08/31 20:21:41;;;;;;;1.02;1.00;;;;;;;20.33;62.57;97310.34;10505865;28;20037;-49
2022/08/31 20:27:01;;;;;;;0.93;0.93;;;;;;;20.34;62.60;97303.03;10499841;28;20049;-50
2022/08/31 20:32:22;;;;;;;1.50;1.20;;;;;;;20.34;62.60;97300.31;10499667;28;20056;-51
2022/08/31 20:37:41;;;;;;;1.13;1.00;;;;;;;20.35;62.48;97293.81;10515903;28;20056;-49
2022/08/31 20:43:05;;;;;;;1.23;1.13;;;;;;;20.33;62.42;97307.66;10511531;28;20056;-49
2022/08/31 20:54:03;;;;;;;1.10;1.00;;;;;;;20.33;62.39;97304.94;10508758;28;20170;-51
2022/08/31 20:59:23;;;;;;;0.95;0.93;;;;;;;20.33;62.41;97307.66;10501148;28;20048;-48
2022/08/31 21:04:44;;;;;;;1.20;1.10;;;;;;;20.32;62.30;97311.44;10501694;28;20053;-51
2022/08/31 21:10:05;;;;;;;1.00;1.00;;;;;;;20.32;62.21;97305.25;10491667;28;20048;-48
2022/08/31 21:15:24;;;;;;;0.90;0.90;;;;;;;20.32;62.36;97308.75;10501192;28;20049;-49
2022/08/31 21:20:45;;;;;;;1.10;1.10;;;;;;;20.32;62.28;97311.44;10500376;28;20053;-51
2022/08/31 21:26:07;;;;;;;1.20;1.10;;;;;;;20.32;62.28;97308.75;10504414;28;20052;-51
2022/08/31 21:31:27;;;;;;;1.00;1.00;;;;;;;20.32;62.34;97310.66;10500327;28;20052;-48
2022/08/31 21:36:46;;;;;;;1.20;1.10;;;;;;;20.32;62.32;97314.16;10513313;28;20040;-49
2022/08/31 21:42:06;;;;;;;1.20;1.10;;;;;;;20.32;62.30;97310.66;10496771;28;20059;-49
2022/08/31 21:47:27;;;;;;;1.20;1.10;;;;;;;20.30;62.36;97302.84;10499684;28;20052;-50
2022/08/31 21:52:46;;;;;;;1.00;1.00;;;;;;;20.32;62.38;97316.84;10503189;28;20056;-50
2022/08/31 21:58:07;;;;;;;1.23;1.13;;;;;;;20.31;62.35;97307.16;10498682;28;20071;-51
2022/08/31 22:03:26;;;;;;;1.27;1.17;;;;;;;20.31;62.33;97309.09;10499096;28;20059;-49
2022/08/31 22:08:46;;;;;;;1.13;1.02;;;;;;;20.31;62.34;97309.09;10505674;28;20044;-50
2022/08/31 22:14:08;;;;;;;1.10;1.00;;;;;;;20.32;62.32;97307.94;10512045;28;20048;-50
2022/08/31 22:19:32;;;;;;;0.90;0.90;;;;;;;20.31;62.26;97315.28;10498505;28;20052;-48
2022/08/31 22:24:53;;;;;;;1.00;1.00;;;;;;;20.30;62.21;97307.47;10495583;28;20052;-50
2022/08/31 22:30:13;;;;;;;1.65;1.10;;;;;;;20.29;62.13;97309.41;10497827;28;20068;-49
2022/08/31 22:35:37;;;;;;;1.10;1.00;;;;;;;20.30;62.16;97313.69;10513139;28;20094;-49
2022/08/31 22:41:02;;;;;;;1.02;0.93;;;;;;;20.30;62.01;97302.06;10484849;28;20057;-50
2022/08/31 22:46:22;;;;;;;0.90;0.90;;;;;;;20.29;62.12;97306.69;10497352;28;20044;-50
2022/08/31 22:51:46;;;;;;;1.08;0.98;;;;;;;20.29;62.15;97301.28;10501309;28;20048;-49
2022/08/31 22:57:06;;;;;;;1.08;0.90;;;;;;;20.29;62.11;97295.88;10510319;28;20097;-48
2022/08/31 23:02:29;;;;;;;1.27;1.10;;;;;;;20.30;62.12;97297.44;10510571;28;20036;-50
2022/08/31 23:07:48;;;;;;;0.88;0.88;;;;;;;20.29;62.10;97295.88;10513707;28;20488;-50
2022/08/31 23:13:08;;;;;;;1.20;1.10;;;;;;;20.29;62.03;97301.28;10497116;28;20511;-48
2022/08/31 23:18:27;;;;;;;1.20;1.10;;;;;;;20.28;62.02;97299.66;10498677;28;20094;-49
2022/08/31 23:23:47;;;;;;;1.10;1.00;;;;;;;20.29;62.03;97295.06;10500840;28;20044;-50
2022/08/31 23:29:11;;;;;;;0.90;0.90;;;;;;;20.27;61.96;97281.84;10496532;28;20053;-49
2022/08/31 23:34:31;;;;;;;1.10;1.00;;;;;;;20.28;61.92;97282.66;10500880;28;20048;-50
2022/08/31 23:39:52;;;;;;;1.20;1.10;;;;;;;20.27;61.90;97281.84;10496425;28;20048;-49
2022/08/31 23:45:11;;;;;;;0.90;0.90;;;;;;;20.27;61.90;97279.16;10509968;28;20492;-48
2022/08/31 23:50:30;;;;;;;1.08;1.00;;;;;;;20.29;61.93;97281.56;10499471;28;20102;-49
2022/08/31 23:55:50;;;;;;;1.08;1.00;;;;;;;20.27;61.93;97279.16;10485410;28;20044;-50
